Time;durP1;ratioP1;P1;durP2;ratioP2;P2;SDS_P1;SDS_P2;PMS_P1;PMS_P2;Temp;Humidity;BMP_temperature;BMP_pressure;BME280_temperature;BME280_humidity;BME280_pressure;Samples;Min_cycle;Max_cycle;Signal;HPM_P1;HPM_P2
2022/04/10 00:01:09;;;;;;;12.60;5.17;;;2.40;1.00;;;;;;5119832;28;20499;-63
2022/04/10 00:03:46;;;;;;;6.57;5.37;;;2.40;1.00;;;;;;5118718;28;20479;-64
2022/04/10 00:06:19;;;;;;;13.00;5.37;;;2.50;1.00;;;;;;5120705;28;20460;-64
2022/04/10 00:08:50;;;;;;;9.23;5.30;;;2.50;1.00;;;;;;5118361;28;20883;-63
2022/04/10 00:11:18;;;;;;;8.50;4.93;;;2.50;1.00;;;;;;5120364;28;20460;-63
2022/04/10 00:13:45;;;;;;;9.57;6.83;;;2.50;1.00;;;;;;5119821;28;20480;-64
2022/04/10 00:16:14;;;;;;;11.20;5.80;;;2.40;1.00;;;;;;5118509;28;20460;-64
2022/04/10 00:18:47;;;;;;;10.57;6.13;;;2.50;1.00;;;;;;5118849;28;20536;-64
2022/04/10 00:21:19;;;;;;;7.70;4.70;;;2.40;1.00;;;;;;5108738;28;20952;-64
2022/04/10 00:23:50;;;;;;;11.87;5.63;;;2.50;1.00;;;;;;5120163;28;20461;-64
2022/04/10 00:26:24;;;;;;;7.80;4.83;;;2.50;1.00;;;;;;5119695;28;20486;-64
2022/04/10 00:29:05;;;;;;;11.43;6.40;;;2.50;1.00;;;;;;5118862;28;20493;-64
2022/04/10 00:31:32;;;;;;;7.97;5.13;;;2.60;1.00;;;;;;5118695;28;20520;-64
2022/04/10 00:34:01;;;;;;;13.37;5.37;;;2.60;1.00;;;;;;5118684;28;20500;-64
2022/04/10 00:36:28;;;;;;;8.07;5.03;;;2.60;1.00;;;;;;5119298;28;20459;-64
2022/04/10 00:39:00;;;;;;;8.70;5.47;;;2.60;1.00;;;;;;5118147;28;20456;-64
2022/04/10 00:41:27;;;;;;;18.27;5.43;;;2.60;1.00;;;;;;5118658;28;20503;-64
2022/04/10 00:44:11;;;;;;;9.63;6.27;;;2.60;1.00;;;;;;5119327;28;20487;-64
2022/04/10 00:46:39;;;;;;;11.27;6.23;;;2.60;1.00;;;;;;5098555;28;20908;-64
2022/04/10 00:49:07;;;;;;;9.67;5.97;;;2.50;1.00;;;;;;5101717;28;20463;-64
2022/04/10 00:51:43;;;;;;;10.00;6.23;;;2.50;1.00;;;;;;5118644;28;20520;-64
2022/04/10 00:54:21;;;;;;;10.47;6.00;;;2.50;1.00;;;;;;5119167;28;20549;-64
2022/04/10 00:56:51;;;;;;;10.03;5.43;;;2.50;1.00;;;;;;5118370;28;20466;-64
2022/04/10 00:59:18;;;;;;;11.27;5.93;;;2.40;1.00;;;;;;5118600;28;20509;-64
2022/04/10 01:01:51;;;;;;;11.07;6.37;;;2.40;1.00;;;;;;5113555;28;20467;-64
2022/04/10 01:04:18;;;;;;;8.13;5.47;;;2.30;1.00;;;;;;5118006;28;20524;-64
2022/04/10 01:06:50;;;;;;;11.33;5.53;;;2.30;17.80;;;;;;5095853;28;20573;-64
2022/04/10 01:09:25;;;;;;;11.40;6.50;;;2.30;15.80;;;;;;5087270;28;20456;-64
2022/04/10 01:11:56;;;;;;;8.90;6.03;;;2.30;33.00;;;;;;5098673;28;20895;-64
2022/04/10 01:14:32;;;;;;;8.93;6.53;;;2.40;53.80;;;;;;5097229;28;20452;-64
2022/04/10 01:17:00;;;;;;;12.40;6.83;;;2.40;96.30;;;;;;5093756;28;20482;-64
2022/04/10 01:19:52;;;;;;;13.53;6.50;;;2.40;99.90;;;;;;5097867;28;20461;-64
2022/04/10 01:22:35;;;;;;;9.40;6.10;;;2.50;99.90;;;;;;5110861;28;20755;-65
2022/04/10 01:25:09;;;;;;;9.40;6.37;;;2.40;99.90;;;;;;5097362;28;20551;-65
2022/04/10 01:27:42;;;;;;;16.00;6.50;;;2.50;99.90;;;;;;5090012;28;20467;-65
2022/04/10 01:30:15;;;;;;;7.77;6.30;;;2.50;99.90;;;;;;5077967;28;20511;-65
2022/04/10 01:32:42;;;;;;;7.70;6.57;;;2.50;99.90;;;;;;5102109;28;20462;-65
2022/04/10 01:35:10;;;;;;;9.73;6.60;;;2.50;75.40;;;;;;5094936;28;20890;-64
2022/04/10 01:37:44;;;;;;;16.87;7.50;;;2.60;82.20;;;;;;5088509;28;20517;-65
2022/04/10 01:40:12;;;;;;;14.47;6.50;;;2.60;57.20;;;;;;5097294;28;20812;-65
2022/04/10 01:42:40;;;;;;;9.40;6.10;;;2.50;58.70;;;;;;5097723;28;20514;-65
2022/04/10 01:45:09;;;;;;;9.70;6.40;;;2.50;50.90;;;;;;5077002;28;20542;-65
2022/04/10 01:47:37;;;;;;;10.23;6.77;;;2.60;39.00;;;;;;5083585;28;20464;-65
2022/04/10 01:50:06;;;;;;;10.60;5.87;;;2.50;35.30;;;;;;5082787;28;20465;-65
2022/04/10 01:52:38;;;;;;;8.10;6.00;;;2.60;26.70;;;;;;5077023;28;20478;-65
2022/04/10 01:55:09;;;;;;;8.20;5.80;;;2.50;1.00;;;;;;5079047;28;20890;-65
2022/04/10 01:57:42;;;;;;;10.47;6.40;;;2.50;1.00;;;;;;5092261;28;20488;-65
2022/04/10 02:00:10;;;;;;;9.60;5.40;;;2.40;1.00;;;;;;5117807;28;20864;-64
2022/04/10 02:02:39;;;;;;;9.00;6.07;;;2.40;1.00;;;;;;5116928;28;20812;-64
2022/04/10 02:05:10;;;;;;;15.33;6.70;;;2.40;1.00;;;;;;5116635;28;20499;-65
2022/04/10 02:07:40;;;;;;;13.70;6.30;;;2.30;1.00;;;;;;5117851;28;20468;-65
2022/04/10 02:10:09;;;;;;;10.23;7.27;;;2.30;1.00;;;;;;5117556;28;20456;-65
2022/04/10 02:12:38;;;;;;;10.40;6.20;;;2.30;1.00;;;;;;5116491;28;20460;-65
2022/04/10 02:15:08;;;;;;;12.13;6.40;;;2.20;1.00;;;;;;5116935;28;20463;-65
2022/04/10 02:17:40;;;;;;;7.73;5.27;;;2.20;1.00;;;;;;5116530;28;20483;-65
2022/04/10 02:20:10;;;;;;;10.30;6.23;;;2.20;1.00;;;;;;5117650;28;20460;-65
2022/04/10 02:22:37;;;;;;;17.47;7.50;;;2.10;1.00;;;;;;5117111;28;20459;-65
2022/04/10 02:25:09;;;;;;;13.63;6.73;;;2.10;1.00;;;;;;5116713;28;20480;-64
2022/04/10 02:27:36;;;;;;;10.53;6.60;;;2.10;1.00;;;;;;5117085;28;20499;-64
2022/04/10 02:30:03;;;;;;;15.07;6.30;;;2.10;1.00;;;;;;5116805;28;20892;-64
2022/04/10 02:32:35;;;;;;;8.87;5.70;;;2.10;1.00;;;;;;5117260;28;20491;-64
2022/04/10 02:35:09;;;;;;;8.70;6.77;;;2.00;1.00;;;;;;5116867;28;20892;-64
2022/04/10 02:37:37;;;;;;;14.73;6.40;;;2.00;1.00;;;;;;5116529;28;20542;-64
2022/04/10 02:40:08;;;;;;;12.83;7.30;;;2.00;1.00;;;;;;5114326;28;20567;-64
2022/04/10 02:42:39;;;;;;;8.60;6.23;;;2.00;1.00;;;;;;5116856;28;20467;-64
2022/04/10 02:45:10;;;;;;;10.10;6.23;;;2.00;1.00;;;;;;5116878;28;20484;-64
2022/04/10 02:47:37;;;;;;;11.63;6.53;;;2.00;1.00;;;;;;5117455;28;20961;-64
2022/04/10 02:50:13;;;;;;;12.53;6.47;;;2.10;2.70;;;;;;5117272;28;20464;-64
2022/04/10 02:52:43;;;;;;;9.10;6.13;;;2.00;1.00;;;;;;5116860;28;20469;-64
2022/04/10 02:55:10;;;;;;;10.90;7.10;;;1.90;1.00;;;;;;5116891;28;20876;-64
2022/04/10 02:57:39;;;;;;;8.03;6.00;;;1.90;1.00;;;;;;5114345;28;20544;-63
2022/04/10 03:00:09;;;;;;;8.13;6.50;;;1.90;1.00;;;;;;5112529;28;20459;-63
2022/04/10 03:02:36;;;;;;;12.30;6.23;;;1.80;1.00;;;;;;5099484;28;20467;-63
2022/04/10 03:05:04;;;;;;;14.10;6.43;;;1.70;1.00;;;;;;5096478;28;20929;-63
2022/04/10 03:07:34;;;;;;;9.30;6.53;;;1.70;1.00;;;;;;5096827;28;20463;-63
2022/04/10 03:10:04;;;;;;;11.93;6.97;;;1.70;1.00;;;;;;5097361;28;20884;-63
2022/04/10 03:12:33;;;;;;;10.93;6.40;;;1.70;1.00;;;;;;5105171;28;20451;-63
2022/04/10 03:15:06;;;;;;;7.73;6.13;;;1.70;1.00;;;;;;5116873;28;20808;-63
2022/04/10 03:17:38;;;;;;;8.53;6.30;;;1.70;15.80;;;;;;5099199;28;20957;-63
2022/04/10 03:20:07;;;;;;;11.87;6.30;;;1.80;42.60;;;;;;5110487;28;20469;-64
2022/04/10 03:22:36;;;;;;;18.50;6.83;;;1.70;32.80;;;;;;5105726;28;20562;-64
2022/04/10 03:25:07;;;;;;;13.70;6.80;;;1.70;39.90;;;;;;5117261;28;20884;-64
2022/04/10 03:27:34;;;;;;;11.20;6.80;;;1.70;97.40;;;;;;5103078;28;20463;-64
2022/04/10 03:30:04;;;;;;;15.13;7.00;;;1.80;99.80;;;;;;5096955;28;20461;-64
2022/04/10 03:32:34;;;;;;;14.50;7.30;;;1.80;85.70;;;;;;5101756;28;20463;-64
2022/04/10 03:35:06;;;;;;;11.83;6.37;;;1.80;72.90;;;;;;5116926;28;20462;-63
2022/04/10 03:37:33;;;;;;;10.70;6.77;;;1.80;62.40;;;;;;5108987;28;20835;-63
2022/04/10 03:40:00;;;;;;;9.90;6.70;;;1.80;59.70;;;;;;5119805;28;20527;-64
2022/04/10 03:42:37;;;;;;;9.30;7.00;;;1.80;89.10;;;;;;5113323;28;20469;-64
2022/04/10 03:45:20;;;;;;;10.90;7.00;;;1.90;74.60;;;;;;5120603;28;20490;-63
2022/04/10 03:47:48;;;;;;;11.07;6.77;;;1.80;41.00;;;;;;5099804;28;20456;-64
2022/04/10 03:50:15;;;;;;;10.27;7.03;;;1.80;33.30;;;;;;5100150;28;20500;-64
2022/04/10 03:52:45;;;;;;;10.00;7.20;;;1.80;22.30;;;;;;5099193;28;20510;-64
2022/04/10 03:55:12;;;;;;;10.20;6.47;;;1.80;7.40;;;;;;5100113;28;20484;-64
2022/04/10 03:57:40;;;;;;;10.90;7.83;;;1.80;34.10;;;;;;5107198;28;20548;-64
2022/04/10 04:00:13;;;;;;;11.17;7.50;;;1.90;35.40;;;;;;5120117;28;20481;-64
2022/04/10 04:02:42;;;;;;;11.27;6.67;;;1.90;64.80;;;;;;5107776;28;20975;-64
2022/04/10 04:05:12;;;;;;;11.73;7.83;;;1.90;99.90;;;;;;5119904;28;20942;-64
2022/04/10 04:07:41;;;;;;;11.03;7.10;;;2.00;99.90;;;;;;5119702;28;20460;-64
2022/04/10 04:10:09;;;;;;;11.20;7.23;;;2.00;99.90;;;;;;5119108;28;20460;-64
2022/04/10 04:12:39;;;;;;;8.27;6.77;;;2.10;98.20;;;;;;5119424;28;20491;-64
2022/04/10 04:15:11;;;;;;;9.83;7.10;;;2.10;99.90;;;;;;5118585;28;20892;-64
2022/04/10 04:17:40;;;;;;;14.50;6.90;;;2.10;71.00;;;;;;5119213;28;20829;-64
2022/04/10 04:20:09;;;;;;;11.17;6.77;;;2.00;24.30;;;;;;5119195;28;20548;-64
2022/04/10 04:22:42;;;;;;;12.20;6.80;;;2.00;1.00;;;;;;5119131;28;20495;-64
2022/04/10 04:25:16;;;;;;;11.50;7.10;;;1.90;1.00;;;;;;5119241;28;20486;-64
2022/04/10 04:27:45;;;;;;;9.70;6.27;;;1.80;1.00;;;;;;5118957;28;20967;-64
2022/04/10 04:30:15;;;;;;;10.30;7.10;;;1.70;1.00;;;;;;5119019;28;20523;-64
2022/04/10 04:32:45;;;;;;;10.77;6.90;;;1.70;1.00;;;;;;5117741;28;20549;-64
2022/04/10 04:35:12;;;;;;;12.77;7.63;;;1.60;1.00;;;;;;5118825;28;20456;-64
2022/04/10 04:37:41;;;;;;;11.13;7.67;;;1.60;1.00;;;;;;5118738;28;20467;-64
2022/04/10 04:40:10;;;;;;;9.80;7.43;;;1.60;1.00;;;;;;5117961;28;20459;-64
2022/04/10 04:42:41;;;;;;;10.80;6.90;;;1.60;1.00;;;;;;5118892;28;20536;-64
2022/04/10 04:45:13;;;;;;;14.93;7.90;;;1.50;1.00;;;;;;5118664;28;20523;-64
2022/04/10 04:47:41;;;;;;;17.43;8.20;;;1.50;1.00;;;;;;5119213;28;20557;-64
2022/04/10 04:50:11;;;;;;;14.60;8.03;;;1.50;1.00;;;;;;5118483;28;20461;-64
2022/04/10 04:52:43;;;;;;;9.57;6.60;;;1.50;1.00;;;;;;5118446;28;20462;-63
2022/04/10 04:55:13;;;;;;;13.50;7.73;;;1.50;37.80;;;;;;5118745;28;20447;-63
2022/04/10 04:57:40;;;;;;;15.17;7.40;;;1.50;72.00;;;;;;5117713;28;20482;-63
2022/04/10 05:00:13;;;;;;;16.70;8.73;;;1.50;59.70;;;;;;5118768;28;20516;-64
2022/04/10 05:02:41;;;;;;;14.40;8.33;;;1.50;94.30;;;;;;5139207;27;20574;-63
2022/04/10 05:05:13;;;;;;;11.23;8.03;;;1.50;72.90;;;;;;5127358;27;20495;-63
2022/04/10 05:07:40;;;;;;;15.97;8.23;;;1.60;84.70;;;;;;5118010;28;20815;-63
2022/04/10 05:10:12;;;;;;;14.33;7.97;;;1.60;86.10;;;;;;5118365;28;20455;-63
2022/04/10 05:12:41;;;;;;;12.87;8.17;;;1.60;98.80;;;;;;5118244;28;20535;-64
2022/04/10 05:15:13;;;;;;;19.37;7.97;;;1.60;99.40;;;;;;5117751;28;20498;-63
2022/04/10 05:17:45;;;;;;;17.00;8.30;;;1.50;45.50;;;;;;5117221;28;20473;-63
2022/04/10 05:20:16;;;;;;;11.70;7.47;;;1.40;24.90;;;;;;5107674;28;20761;-63
2022/04/10 05:22:43;;;;;;;16.90;8.10;;;1.40;18.10;;;;;;5116083;28;20512;-63
2022/04/10 05:25:17;;;;;;;14.97;9.17;;;1.30;7.80;;;;;;5117005;28;20747;-63
2022/04/10 05:27:52;;;;;;;21.83;13.13;;;1.30;5.80;;;;;;5117518;28;20459;-63
2022/04/10 05:30:19;;;;;;;14.97;9.07;;;1.20;9.40;;;;;;5118479;28;20455;-63
2022/04/10 05:33:05;;;;;;;;;;;;;;;;;;;;;
2022/04/10 05:35:33;;;;;;;14.97;9.00;;;1.30;41.60;;;;;;5114965;28;20767;-63
2022/04/10 05:38:01;;;;;;;11.70;8.70;;;1.30;69.20;;;;;;5117946;28;20466;-63
2022/04/10 05:40:29;;;;;;;12.40;9.43;;;1.30;99.10;;;;;;5115998;28;20850;-63
2022/04/10 05:42:56;;;;;;;14.60;9.40;;;1.40;99.90;;;;;;5116305;28;20472;-63
2022/04/10 05:45:25;;;;;;;11.33;8.60;;;1.40;99.90;;;;;;5116930;28;21000;-63
2022/04/10 05:47:54;;;;;;;12.87;9.50;;;1.50;99.90;;;;;;5116981;28;20462;-63
2022/04/10 05:50:27;;;;;;;22.57;16.87;;;1.50;99.90;;;;;;5128764;27;20554;-63
2022/04/10 05:52:59;;;;;;;18.50;11.30;;;1.60;99.90;;;;;;5134348;27;20501;-63
2022/04/10 05:55:28;;;;;;;19.03;13.07;;;1.70;99.90;;;;;;5117385;28;20518;-63
2022/04/10 05:58:01;;;;;;;12.40;10.07;;;1.90;99.90;;;;;;5107337;28;20967;-63
2022/04/10 06:00:28;;;;;;;15.57;14.07;;;2.00;99.90;;;;;;5114841;28;20470;-63
2022/04/10 06:03:04;;;;;;;15.57;11.53;;;2.20;99.90;;;;;;5116748;28;20517;-63
2022/04/10 06:05:35;;;;;;;13.40;10.27;;;2.40;99.90;;;;;;5077442;28;21015;-62
2022/04/10 06:08:02;;;;;;;12.50;9.03;;;2.60;99.90;;;;;;5088671;28;20469;-62
2022/04/10 06:10:29;;;;;;;13.30;8.53;;;2.80;99.90;;;;;;5097275;28;20461;-62
2022/04/10 06:13:08;;;;;;;11.30;9.70;;;2.90;54.10;;;;;;5096902;28;20464;-62
2022/04/10 06:15:35;;;;;;;12.80;8.20;;;3.00;1.00;;;;;;5096279;28;20489;-63
2022/04/10 06:18:08;;;;;;;12.10;9.53;;;3.10;1.00;;;;;;5096823;28;20484;-63
2022/04/10 06:20:35;;;;;;;17.73;9.27;;;3.20;1.00;;;;;;5113718;28;20463;-63
2022/04/10 06:23:03;;;;;;;12.40;9.27;;;3.40;1.00;;;;;;5117091;28;20539;-63
2022/04/10 06:25:30;;;;;;;15.70;9.13;;;3.50;1.00;;;;;;5105597;28;20847;-63
2022/04/10 06:27:59;;;;;;;12.33;9.27;;;3.50;1.00;;;;;;5097169;28;20527;-63
2022/04/10 06:30:29;;;;;;;19.23;10.50;;;3.70;1.00;;;;;;5105512;28;20510;-64
2022/04/10 06:32:59;;;;;;;11.10;9.23;;;4.10;1.00;;;;;;5115606;28;20459;-66
2022/04/10 06:35:30;;;;;;;14.83;9.17;;;4.20;1.00;;;;;;5116952;28;20512;-65
2022/04/10 06:38:04;;;;;;;12.33;9.50;;;4.20;1.00;;;;;;5103271;28;20453;-64
2022/04/10 06:40:37;;;;;;;14.57;8.77;;;4.20;1.00;;;;;;5108061;28;20537;-63
2022/04/10 06:43:10;;;;;;;11.67;8.97;;;4.10;1.00;;;;;;5107275;28;20460;-64
2022/04/10 06:45:39;;;;;;;15.37;10.00;;;4.10;1.00;;;;;;5117755;28;20511;-65
2022/04/10 06:48:22;;;;;;;14.60;9.00;;;4.10;1.00;;;;;;5099064;28;20469;-65
2022/04/10 06:50:51;;;;;;;12.47;8.57;;;4.00;1.00;;;;;;5097650;28;20463;-65
2022/04/10 06:53:17;;;;;;;12.93;9.27;;;4.10;1.00;;;;;;5096933;28;20469;-65
2022/04/10 06:55:44;;;;;;;13.53;8.70;;;4.20;1.00;;;;;;5101018;28;20543;-65
2022/04/10 06:58:16;;;;;;;12.73;9.60;;;4.20;1.00;;;;;;5114146;28;20564;-66
2022/04/10 07:00:46;;;;;;;15.40;9.13;;;4.40;1.00;;;;;;5115818;28;20459;-65
2022/04/10 07:03:15;;;;;;;11.23;9.20;;;4.40;1.00;;;;;;5117210;28;20579;-65
2022/04/10 07:05:44;;;;;;;16.90;9.53;;;4.40;1.00;;;;;;5116399;28;20479;-66
2022/04/10 07:08:15;;;;;;;10.80;8.30;;;4.30;1.00;;;;;;5115718;28;20493;-66
2022/04/10 07:10:42;;;;;;;12.50;9.73;;;4.30;1.00;;;;;;5116531;28;20499;-65
2022/04/10 07:13:12;;;;;;;14.40;10.23;;;4.50;1.00;;;;;;5117174;28;20459;-65
2022/04/10 07:15:40;;;;;;;12.67;8.73;;;5.30;1.00;;;;;;5120500;28;20505;-66
2022/04/10 07:18:09;;;;;;;12.80;8.10;;;5.80;1.00;;;;;;5119726;28;20455;-66
2022/04/10 07:20:40;;;;;;;10.00;7.80;;;5.80;1.00;;;;;;5119953;28;20468;-66
2022/04/10 07:25:59;;;;;;;11.70;7.67;;;5.70;99.90;;;;;;5119262;28;20478;-66
2022/04/10 07:28:26;;;;;;;8.23;6.87;;;5.50;99.90;;;;;;5121511;27;20550;-66
2022/04/10 07:30:55;;;;;;;9.67;7.13;;;5.60;1.00;;;;;;5133225;27;20765;-66
2022/04/10 07:33:28;;;;;;;13.13;7.67;;;5.70;99.90;;;;;;5120008;28;20506;-66
2022/04/10 07:36:04;;;;;;;11.40;6.83;;;5.90;99.90;;;;;;5100332;28;20456;-66
2022/04/10 07:38:33;;;;;;;14.07;7.30;;;5.80;99.90;;;;;;5117878;28;20459;-66
2022/04/10 07:41:07;;;;;;;10.47;7.43;;;5.80;99.90;;;;;;5115427;28;20737;-66
2022/04/10 07:43:34;;;;;;;10.23;7.60;;;6.10;99.90;;;;;;5116372;28;20532;-66
2022/04/10 07:48:57;;;;;;;10.97;7.30;;;6.50;99.90;;;;;;5101094;28;20428;-67
2022/04/10 07:51:27;;;;;;;13.53;7.50;;;6.70;99.90;;;;;;5120503;28;20487;-66
2022/04/10 07:53:56;;;;;;;10.23;6.37;;;7.00;99.90;;;;;;5120042;28;20495;-67
2022/04/10 07:56:33;;;;;;;12.60;7.10;;;7.50;99.90;;;;;;5119540;28;20458;-67
2022/04/10 07:59:00;;;;;;;8.33;5.93;;;7.20;99.90;;;;;;5119919;28;20487;-67
2022/04/10 08:01:27;;;;;;;12.93;6.80;;;7.10;99.90;;;;;;5117922;28;20460;-67
2022/04/10 08:03:54;;;;;;;10.13;6.20;;;7.70;99.90;;;;;;5119808;28;20961;-67
2022/04/10 08:06:24;;;;;;;12.47;6.60;;;7.80;99.90;;;;;;5119286;28;20576;-67
2022/04/10 08:08:51;;;;;;;8.10;5.93;;;8.10;99.90;;;;;;5118746;28;20460;-67
2022/04/10 08:11:18;;;;;;;13.97;6.40;;;8.40;99.90;;;;;;5118896;28;20495;-68
2022/04/10 08:13:47;;;;;;;7.50;6.53;;;8.70;99.90;;;;;;5119602;28;20463;-68
2022/04/10 08:16:15;;;;;;;9.53;6.10;;;8.70;99.90;;;;;;5117208;28;20554;-67
2022/04/10 08:18:44;;;;;;;13.70;5.80;;;8.20;99.90;;;;;;5118346;28;20463;-68
2022/04/10 08:21:11;;;;;;;11.83;5.90;;;8.90;99.90;;;;;;5118416;28;20532;-68
2022/04/10 08:23:42;;;;;;;9.37;5.90;;;9.50;99.90;;;;;;5118998;28;20528;-68
2022/04/10 08:26:09;;;;;;;7.43;5.67;;;9.90;99.90;;;;;;5118847;28;20493;-68
2022/04/10 08:28:36;;;;;;;12.00;5.10;;;9.70;99.90;;;;;;5119570;28;20521;-67
2022/04/10 08:31:08;;;;;;;8.60;5.10;;;9.60;99.90;;;;;;5117838;28;20462;-68
2022/04/10 08:33:39;;;;;;;9.30;5.97;;;9.10;99.90;;;;;;5119156;28;20463;-67
2022/04/10 08:36:09;;;;;;;7.37;5.37;;;8.70;99.90;;;;;;5119210;28;20525;-68
2022/04/10 08:38:37;;;;;;;9.23;5.70;;;9.00;99.90;;;;;;5118492;28;20495;-67
2022/04/10 08:41:04;;;;;;;9.80;4.77;;;9.30;99.90;;;;;;5116863;28;20491;-68
2022/04/10 08:43:36;;;;;;;7.97;4.50;;;9.10;99.90;;;;;;5115210;28;20529;-67
2022/04/10 08:46:14;;;;;;;6.80;4.43;;;8.70;99.90;;;;;;5104169;28;20494;-67
2022/04/10 08:48:42;;;;;;;11.50;5.97;;;8.10;99.90;;;;;;5118097;27;20894;-66
2022/04/10 08:51:09;;;;;;;5.47;4.20;;;7.90;99.90;;;;;;5116549;28;20525;-66
2022/04/10 08:53:36;;;;;;;10.23;4.30;;;8.10;99.90;;;;;;5116165;28;20491;-66
2022/04/10 08:56:09;;;;;;;10.03;4.17;;;8.20;99.90;;;;;;5116635;28;20529;-66
2022/04/10 08:58:36;;;;;;;7.83;3.90;;;8.10;99.90;;;;;;5124793;27;20524;-66
2022/04/10 09:01:04;;;;;;;7.27;3.67;;;8.20;99.90;;;;;;5130702;27;20455;-65
2022/04/10 09:03:36;;;;;;;8.87;4.17;;;8.80;99.90;;;;;;5118453;28;20459;-66
2022/04/10 09:06:09;;;;;;;7.07;4.33;;;8.90;99.90;;;;;;5121352;28;20494;-65
2022/04/10 09:08:36;;;;;;;7.97;4.27;;;8.80;99.90;;;;;;5117270;28;20550;-66
2022/04/10 09:11:05;;;;;;;7.53;4.97;;;8.70;99.90;;;;;;5114958;28;20475;-66
2022/04/10 09:13:34;;;;;;;8.90;4.47;;;8.60;99.90;;;;;;5117989;27;20467;-65
2022/04/10 09:16:13;;;;;;;7.63;4.73;;;9.00;99.90;;;;;;5118120;28;20466;-66
2022/04/10 09:19:00;;;;;;;7.17;4.83;;;9.10;99.90;;;;;;5114529;28;20490;-66
2022/04/10 09:21:32;;;;;;;9.70;5.00;;;8.70;99.90;;;;;;5130525;27;20817;-65
2022/04/10 09:24:05;;;;;;;6.80;4.33;;;8.80;99.90;;;;;;5125112;27;20456;-66
2022/04/10 09:26:46;;;;;;;9.37;5.13;;;9.70;99.90;;;;;;5116649;28;20495;-66
2022/04/10 09:29:21;;;;;;;6.00;3.90;;;10.20;99.90;;;;;;5122897;27;20625;-66
2022/04/10 09:31:57;;;;;;;6.30;3.77;;;10.40;99.90;;;;;;5125875;27;20469;-66
2022/04/10 09:34:25;;;;;;;5.30;3.80;;;10.60;99.90;;;;;;5117306;28;20536;-65
2022/04/10 09:37:01;;;;;;;8.80;3.50;;;10.70;99.90;;;;;;5116675;28;20521;-66
2022/04/10 09:39:32;;;;;;;7.83;3.90;;;10.80;99.90;;;;;;5117502;28;20491;-66
2022/04/10 09:42:06;;;;;;;9.07;4.00;;;10.40;99.90;;;;;;5118406;28;20459;-66
2022/04/10 09:44:37;;;;;;;10.90;4.67;;;10.40;99.90;;;;;;5116760;28;20459;-66
2022/04/10 09:47:11;;;;;;;4.50;3.40;;;9.90;99.90;;;;;;5117207;28;20523;-66
2022/04/10 09:49:40;;;;;;;5.17;3.80;;;9.50;99.90;;;;;;5117572;28;20546;-66
2022/04/10 09:52:15;;;;;;;13.47;4.40;;;9.30;99.90;;;;;;5118410;28;20524;-66
2022/04/10 09:54:44;;;;;;;12.20;3.83;;;8.90;99.90;;;;;;5117071;28;20470;-66
2022/04/10 09:57:19;;;;;;;15.63;3.50;;;8.70;99.90;;;;;;5117548;28;20513;-65
2022/04/10 09:59:53;;;;;;;5.00;4.40;;;8.70;99.90;;;;;;5118452;27;20470;-65
2022/04/10 10:02:23;;;;;;;5.83;3.83;;;8.80;99.90;;;;;;5117180;28;20459;-65
2022/04/10 10:04:57;;;;;;;7.13;4.90;;;8.90;99.90;;;;;;5116782;28;20473;-65
2022/04/10 10:07:27;;;;;;;7.93;4.43;;;8.80;99.90;;;;;;5115708;28;20483;-66
2022/04/10 10:09:58;;;;;;;4.90;3.87;;;8.80;99.90;;;;;;5117122;28;20456;-66
2022/04/10 10:12:29;;;;;;;8.43;4.40;;;8.60;99.90;;;;;;5117110;28;20460;-66
2022/04/10 10:14:59;;;;;;;5.20;4.23;;;8.40;99.90;;;;;;5117203;28;20567;-66
2022/04/10 10:17:31;;;;;;;7.50;4.37;;;7.90;99.90;;;;;;5116530;28;20517;-66
2022/04/10 10:20:05;;;;;;;11.30;5.70;;;7.50;99.90;;;;;;5115661;28;20499;-66
2022/04/10 10:22:32;;;;;;;20.67;16.90;;;7.50;99.90;;;;;;5113181;28;20457;-66
2022/04/10 10:25:07;;;;;;;11.77;5.23;;;7.80;99.90;;;;;;5115747;28;20767;-66
2022/04/10 10:28:09;;;;;;;6.17;4.23;;;8.00;99.90;;;;;;5115888;28;20903;-66
2022/04/10 10:30:48;;;;;;;14.40;6.43;;;8.00;99.90;;;;;;5112453;28;20829;-65
2022/04/10 10:33:22;;;;;;;19.73;11.77;;;7.80;99.90;;;;;;5115672;28;20508;-65
2022/04/10 10:35:51;;;;;;;7.53;4.70;;;8.80;99.90;;;;;;5115873;28;20517;-66
2022/04/10 10:38:35;;;;;;;9.13;5.10;;;9.40;99.90;;;;;;5116236;28;20541;-65
2022/04/10 10:41:35;;;;;;;10.33;4.83;;;9.80;99.90;;;;;;5109509;28;20841;-65
2022/04/10 10:44:43;;;;;;;9.37;5.00;;;10.80;99.90;;;;;;5117329;28;20652;-65
2022/04/10 10:47:23;;;;;;;8.83;4.40;;;11.00;99.90;;;;;;5116802;28;20483;-65
2022/04/10 10:49:58;;;;;;;5.23;4.27;;;11.00;99.90;;;;;;5121151;28;20459;-65
2022/04/10 10:52:25;;;;;;;5.60;4.10;;;9.90;99.90;;;;;;5121199;28;20462;-65
2022/04/10 10:54:54;;;;;;;6.17;5.57;;;9.70;99.90;;;;;;5119742;28;20459;-65
2022/04/10 10:57:43;;;;;;;6.63;4.37;;;9.90;99.90;;;;;;5119702;28;20511;-65
2022/04/10 11:00:16;;;;;;;6.83;3.60;;;10.30;99.90;;;;;;5121662;28;20937;-65
2022/04/10 11:02:49;;;;;;;37.33;26.97;;;11.00;99.90;;;;;;5120981;28;20875;-65
2022/04/10 11:05:38;;;;;;;5.93;4.23;;;11.20;99.90;;;;;;5119554;28;20520;-65
2022/04/10 11:08:18;;;;;;;4.57;3.47;;;11.10;99.90;;;;;;5118998;28;20483;-65
2022/04/10 11:10:53;;;;;;;4.70;3.50;;;11.40;99.90;;;;;;5120233;28;20465;-65
2022/04/10 11:13:21;;;;;;;4.47;3.37;;;12.10;99.90;;;;;;5119085;28;20459;-65
2022/04/10 11:16:08;;;;;;;10.03;3.20;;;11.40;99.90;;;;;;5119984;28;20550;-65
2022/04/10 11:18:44;;;;;;;3.50;3.07;;;10.90;99.90;;;;;;5119493;28;20463;-65
2022/04/10 11:21:20;;;;;;;5.30;3.67;;;10.60;99.90;;;;;;5120787;28;20527;-66
2022/04/10 11:23:55;;;;;;;5.07;4.20;;;10.40;99.90;;;;;;5120218;28;20462;-65
2022/04/10 11:26:27;;;;;;;6.63;3.80;;;11.00;99.90;;;;;;5119948;28;20493;-66
2022/04/10 11:29:06;;;;;;;4.57;3.33;;;10.90;99.90;;;;;;5120104;28;20459;-66
2022/04/10 11:31:41;;;;;;;6.23;3.37;;;10.70;99.90;;;;;;5120738;28;20462;-66
2022/04/10 11:34:14;;;;;;;4.97;3.50;;;10.30;99.90;;;;;;5119694;28;20459;-65
2022/04/10 11:37:14;;;;;;;;;;;;;;;;;;;;;
2022/04/10 11:39:44;;;;;;;4.40;3.10;;;10.60;99.90;;;;;;5115545;28;20854;-66
2022/04/10 11:42:11;;;;;;;4.73;2.60;;;10.50;99.90;;;;;;5119159;28;20460;-65
2022/04/10 11:44:44;;;;;;;8.37;2.97;;;11.40;99.90;;;;;;5119419;28;20581;-65
2022/04/10 11:47:21;;;;;;;5.73;3.53;;;11.80;99.90;;;;;;5118670;28;20541;-65
2022/04/10 11:49:55;;;;;;;3.30;2.83;;;11.70;99.90;;;;;;5118618;28;20459;-65
2022/04/10 11:52:28;;;;;;;4.27;3.40;;;11.50;99.90;;;;;;5119842;28;20455;-65
2022/04/10 11:54:55;;;;;;;4.53;3.40;;;10.90;99.90;;;;;;5111438;28;20553;-65
2022/04/10 11:57:22;;;;;;;3.37;2.97;;;10.50;99.90;;;;;;5112652;28;20484;-65
2022/04/10 11:59:52;;;;;;;14.13;12.83;;;10.30;99.90;;;;;;5090836;28;20538;-65
2022/04/10 12:02:31;;;;;;;6.43;2.67;;;10.40;99.90;;;;;;5103957;28;20922;-65
2022/04/10 12:05:03;;;;;;;6.40;2.50;;;10.10;99.90;;;;;;5094396;28;20464;-65
2022/04/10 12:07:33;;;;;;;5.10;2.77;;;10.40;99.90;;;;;;5097775;28;20492;-64
2022/04/10 12:10:07;;;;;;;3.60;2.50;;;11.40;99.90;;;;;;5097856;28;20461;-65
2022/04/10 12:12:40;;;;;;;3.67;2.70;;;11.70;99.90;;;;;;5097180;28;20641;-65
2022/04/10 12:15:22;;;;;;;4.23;2.03;;;11.50;99.90;;;;;;5103754;28;20785;-65
2022/04/10 12:18:03;;;;;;;3.60;2.13;;;11.20;99.90;;;;;;5092141;28;20531;-65
2022/04/10 12:20:35;;;;;;;2.83;2.50;;;11.40;99.90;;;;;;5096840;28;20493;-65
2022/04/10 12:23:20;;;;;;;3.57;2.60;;;11.30;99.90;;;;;;5092860;28;20464;-64
2022/04/10 12:25:49;;;;;;;3.17;2.40;;;11.90;99.90;;;;;;5093682;28;20527;-64
2022/04/10 12:28:20;;;;;;;3.03;2.50;;;12.80;99.90;;;;;;5092758;28;20990;-65
2022/04/10 12:30:48;;;;;;;4.17;2.27;;;12.60;99.90;;;;;;5092748;28;20566;-64
2022/04/10 12:33:19;;;;;;;5.23;2.63;;;11.40;99.90;;;;;;5096119;28;20472;-64
2022/04/10 12:35:50;;;;;;;2.50;2.00;;;11.30;99.90;;;;;;5088975;28;20504;-64
2022/04/10 12:38:20;;;;;;;2.33;1.90;;;10.80;99.90;;;;;;5097683;28;20471;-63
2022/04/10 12:40:47;;;;;;;3.43;2.50;;;11.90;99.90;;;;;;5096660;28;20457;-64
2022/04/10 12:43:14;;;;;;;2.73;2.53;;;12.50;99.90;;;;;;5092703;28;20933;-64
2022/04/10 12:45:50;;;;;;;4.37;2.67;;;12.00;99.90;;;;;;5090303;28;20479;-64
2022/04/10 12:48:24;;;;;;;4.83;2.80;;;11.40;99.90;;;;;;5090316;28;20592;-64
2022/04/10 12:51:16;;;;;;;2.57;2.37;;;10.70;99.90;;;;;;5089753;28;20541;-65
2022/04/10 12:53:49;;;;;;;4.00;2.17;;;10.60;99.90;;;;;;5092713;28;20464;-64
2022/04/10 12:56:20;;;;;;;2.40;2.20;;;10.70;99.90;;;;;;5087970;28;20559;-64
2022/04/10 12:58:50;;;;;;;5.30;2.40;;;10.90;99.90;;;;;;5104042;28;20489;-64
2022/04/10 13:01:31;;;;;;;2.70;2.50;;;10.50;99.90;;;;;;5117502;28;20459;-64
2022/04/10 13:03:59;;;;;;;4.87;2.50;;;10.20;99.90;;;;;;5117316;28;20470;-63
2022/04/10 13:06:53;;;;;;;3.47;2.00;;;10.50;99.90;;;;;;5124994;27;20521;-63
2022/04/10 13:09:26;;;;;;;2.70;2.13;;;11.70;99.90;;;;;;5118762;28;20513;-64
2022/04/10 13:11:57;;;;;;;8.67;3.00;;;12.30;99.90;;;;;;5117395;28;20455;-64
2022/04/10 13:14:30;;;;;;;5.50;1.87;;;12.00;99.90;;;;;;5114946;28;20468;-64
2022/04/10 13:17:04;;;;;;;3.13;2.27;;;11.90;99.90;;;;;;5127171;27;20462;-63
2022/04/10 13:19:37;;;;;;;4.13;2.33;;;11.90;99.90;;;;;;5118012;28;20459;-64
2022/04/10 13:22:05;;;;;;;2.93;2.00;;;12.10;99.90;;;;;;5118181;28;20459;-63
2022/04/10 13:24:46;;;;;;;3.00;2.00;;;11.90;99.90;;;;;;5116733;28;20491;-63